sensor_id;sensor_type;location;lat;lon;timestamp;pressure;altitude;pressure_sealevel;temperature;humidity
53340;BME280;46212;50.258;19.062;2023-03-01T00:01:49;99746.72;;;-3.59;81.47
53340;BME280;46212;50.258;19.062;2023-03-01T00:04:15;99758.78;;;-3.45;80.89
53340;BME280;46212;50.258;19.062;2023-03-01T00:06:42;99763.41;;;-3.45;80.79
53340;BME280;46212;50.258;19.062;2023-03-01T00:09:11;99770.25;;;-3.48;80.79
53340;BME280;46212;50.258;19.062;2023-03-01T00:11:37;99763.19;;;-3.52;81.32
53340;BME280;46212;50.258;19.062;2023-03-01T00:14:03;99774.66;;;-3.55;81.76
53340;BME280;46212;50.258;19.062;2023-03-01T00:16:40;99783.50;;;-3.55;81.43
53340;BME280;46212;50.258;19.062;2023-03-01T00:19:07;99775.53;;;-3.51;82.17
53340;BME280;46212;50.258;19.062;2023-03-01T00:21:33;99775.66;;;-3.48;82.02
53340;BME280;46212;50.258;19.062;2023-03-01T00:24:00;99772.16;;;-3.48;82.02
53340;BME280;46212;50.258;19.062;2023-03-01T00:26:26;99760.94;;;-3.50;81.54
53340;BME280;46212;50.258;19.062;2023-03-01T00:28:53;99763.75;;;-3.47;81.39
53340;BME280;46212;50.258;19.062;2023-03-01T00:31:25;99756.06;;;-3.57;81.74
53340;BME280;46212;50.258;19.062;2023-03-01T00:33:56;99765.38;;;-3.66;82.47
53340;BME280;46212;50.258;19.062;2023-03-01T00:36:23;99774.84;;;-3.60;82.77
53340;BME280;46212;50.258;19.062;2023-03-01T00:38:49;99750.22;;;-3.59;82.74
53340;BME280;46212;50.258;19.062;2023-03-01T00:41:18;99756.44;;;-3.46;82.33
53340;BME280;46212;50.258;19.062;2023-03-01T00:43:44;99768.69;;;-3.49;81.93
53340;BME280;46212;50.258;19.062;2023-03-01T00:46:12;99767.31;;;-3.55;81.69
53340;BME280;46212;50.258;19.062;2023-03-01T00:48:39;99741.63;;;-3.73;82.14
53340;BME280;46212;50.258;19.062;2023-03-01T00:53:37;99762.81;;;-3.63;81.87
53340;BME280;46212;50.258;19.062;2023-03-01T00:56:03;99753.22;;;-3.72;82.04
53340;BME280;46212;50.258;19.062;2023-03-01T00:58:29;99756.00;;;-3.81;82.42
53340;BME280;46212;50.258;19.062;2023-03-01T01:00:54;99745.88;;;-3.84;82.13
53340;BME280;46212;50.258;19.062;2023-03-01T01:03:20;99756.56;;;-3.88;82.81
53340;BME280;46212;50.258;19.062;2023-03-01T01:05:46;99705.09;;;-4.15;83.14
53340;BME280;46212;50.258;19.062;2023-03-01T01:08:11;99746.31;;;-3.82;82.96
53340;BME280;46212;50.258;19.062;2023-03-01T01:10:37;99737.97;;;-3.89;83.04
53340;BME280;46212;50.258;19.062;2023-03-01T01:13:02;99748.72;;;-3.81;82.63
53340;BME280;46212;50.258;19.062;2023-03-01T01:15:28;99741.91;;;-3.87;82.64
53340;BME280;46212;50.258;19.062;2023-03-01T01:17:54;99741.81;;;-3.90;82.69
53340;BME280;46212;50.258;19.062;2023-03-01T01:20:20;99723.50;;;-3.85;82.85
53340;BME280;46212;50.258;19.062;2023-03-01T01:22:45;99736.47;;;-3.66;82.36
53340;BME280;46212;50.258;19.062;2023-03-01T01:25:11;99734.09;;;-3.67;81.97
53340;BME280;46212;50.258;19.062;2023-03-01T01:27:36;99728.38;;;-3.99;82.55
53340;BME280;46212;50.258;19.062;2023-03-01T01:30:03;99724.66;;;-4.06;82.71
53340;BME280;46212;50.258;19.062;2023-03-01T01:32:29;99729.41;;;-4.03;83.08
53340;BME280;46212;50.258;19.062;2023-03-01T01:34:55;99725.78;;;-4.07;82.89
53340;BME280;46212;50.258;19.062;2023-03-01T01:37:21;99725.94;;;-3.92;82.86
53340;BME280;46212;50.258;19.062;2023-03-01T01:39:46;99733.81;;;-4.19;83.52
53340;BME280;46212;50.258;19.062;2023-03-01T01:42:17;99734.13;;;-4.21;83.35
53340;BME280;46212;50.258;19.062;2023-03-01T01:44:46;99714.09;;;-4.32;83.94
53340;BME280;46212;50.258;19.062;2023-03-01T01:47:18;99703.19;;;-4.56;84.55
53340;BME280;46212;50.258;19.062;2023-03-01T01:49:53;99715.88;;;-4.57;85.25
53340;BME280;46212;50.258;19.062;2023-03-01T01:52:26;99698.31;;;-4.63;85.84
53340;BME280;46212;50.258;19.062;2023-03-01T01:55:07;99707.88;;;-4.45;86.83
53340;BME280;46212;50.258;19.062;2023-03-01T01:57:39;99706.81;;;-4.32;86.38
53340;BME280;46212;50.258;19.062;2023-03-01T02:00:12;99685.09;;;-4.35;85.76
53340;BME280;46212;50.258;19.062;2023-03-01T02:02:39;99705.28;;;-4.20;85.03
53340;BME280;46212;50.258;19.062;2023-03-01T02:05:26;99698.53;;;-4.14;84.49
53340;BME280;46212;50.258;19.062;2023-03-01T02:07:53;99709.41;;;-4.23;84.13
53340;BME280;46212;50.258;19.062;2023-03-01T02:10:21;99704.94;;;-4.19;83.69
53340;BME280;46212;50.258;19.062;2023-03-01T02:12:47;99705.13;;;-4.24;83.70
53340;BME280;46212;50.258;19.062;2023-03-01T02:15:13;99699.25;;;-4.38;84.11
53340;BME280;46212;50.258;19.062;2023-03-01T02:17:38;99702.13;;;-4.43;85.02
53340;BME280;46212;50.258;19.062;2023-03-01T02:22:43;99692.56;;;-4.20;84.68
53340;BME280;46212;50.258;19.062;2023-03-01T02:30:28;99715.09;;;-4.37;84.35
53340;BME280;46212;50.258;19.062;2023-03-01T02:32:55;99714.94;;;-4.19;84.37
53340;BME280;46212;50.258;19.062;2023-03-01T02:35:29;99722.66;;;-3.97;83.87
53340;BME280;46212;50.258;19.062;2023-03-01T02:37:56;99716.44;;;-4.10;83.92
53340;BME280;46212;50.258;19.062;2023-03-01T02:40:22;99722.72;;;-4.06;84.04
53340;BME280;46212;50.258;19.062;2023-03-01T02:42:56;99714.75;;;-4.35;84.25
53340;BME280;46212;50.258;19.062;2023-03-01T02:45:22;99701.72;;;-4.74;85.03
53340;BME280;46212;50.258;19.062;2023-03-01T02:47:48;99709.81;;;-4.74;85.46
53340;BME280;46212;50.258;19.062;2023-03-01T02:53:15;99706.66;;;-4.76;85.59
53340;BME280;46212;50.258;19.062;2023-03-01T02:55:41;99703.53;;;-4.58;85.55
53340;BME280;46212;50.258;19.062;2023-03-01T02:58:07;99712.25;;;-4.19;85.25
53340;BME280;46212;50.258;19.062;2023-03-01T03:00:39;99704.72;;;-4.14;85.36
53340;BME280;46212;50.258;19.062;2023-03-01T03:03:06;99706.00;;;-4.32;84.76
53340;BME280;46212;50.258;19.062;2023-03-01T03:05:32;99709.56;;;-4.40;84.81
53340;BME280;46212;50.258;19.062;2023-03-01T03:08:00;99712.59;;;-4.62;85.01
53340;BME280;46212;50.258;19.062;2023-03-01T03:10:30;99715.13;;;-4.66;84.91
53340;BME280;46212;50.258;19.062;2023-03-01T03:12:58;99708.38;;;-4.72;85.16
53340;BME280;46212;50.258;19.062;2023-03-01T03:15:25;99690.09;;;-4.87;85.48
53340;BME280;46212;50.258;19.062;2023-03-01T03:17:52;99702.38;;;-4.77;85.54
53340;BME280;46212;50.258;19.062;2023-03-01T03:20:19;99686.47;;;-4.91;85.40
53340;BME280;46212;50.258;19.062;2023-03-01T03:22:47;99691.75;;;-4.74;85.59
53340;BME280;46212;50.258;19.062;2023-03-01T03:25:12;99693.34;;;-4.73;86.07
53340;BME280;46212;50.258;19.062;2023-03-01T03:27:39;99680.31;;;-4.71;86.48
53340;BME280;46212;50.258;19.062;2023-03-01T03:30:07;99675.97;;;-4.84;87.05
53340;BME280;46212;50.258;19.062;2023-03-01T03:32:38;99667.44;;;-4.86;87.53
53340;BME280;46212;50.258;19.062;2023-03-01T03:35:05;99678.34;;;-4.82;87.66
53340;BME280;46212;50.258;19.062;2023-03-01T03:37:38;99661.78;;;-4.93;88.25
53340;BME280;46212;50.258;19.062;2023-03-01T03:40:22;99671.38;;;-4.84;88.56
53340;BME280;46212;50.258;19.062;2023-03-01T03:42:47;99680.41;;;-4.88;88.74
53340;BME280;46212;50.258;19.062;2023-03-01T03:45:13;99676.47;;;-4.91;89.05
53340;BME280;46212;50.258;19.062;2023-03-01T03:47:39;99667.69;;;-5.00;89.43
53340;BME280;46212;50.258;19.062;2023-03-01T03:50:05;99678.00;;;-4.81;89.52
53340;BME280;46212;50.258;19.062;2023-03-01T03:52:30;99671.41;;;-4.30;88.54
53340;BME280;46212;50.258;19.062;2023-03-01T03:54:55;99667.47;;;-4.53;87.02
53340;BME280;46212;50.258;19.062;2023-03-01T03:57:21;99687.47;;;-4.34;86.78
53340;BME280;46212;50.258;19.062;2023-03-01T03:59:46;99696.63;;;-4.14;86.29
53340;BME280;46212;50.258;19.062;2023-03-01T04:02:12;99686.53;;;-4.17;85.89
53340;BME280;46212;50.258;19.062;2023-03-01T04:04:37;99671.94;;;-4.37;85.84
53340;BME280;46212;50.258;19.062;2023-03-01T04:07:02;99686.91;;;-4.60;86.08
53340;BME280;46212;50.258;19.062;2023-03-01T04:09:28;99681.56;;;-4.89;86.15
53340;BME280;46212;50.258;19.062;2023-03-01T04:11:55;99694.81;;;-5.05;86.68
53340;BME280;46212;50.258;19.062;2023-03-01T04:14:20;99682.59;;;-5.02;86.88
53340;BME280;46212;50.258;19.062;2023-03-01T04:16:46;99672.47;;;-5.05;87.08
53340;BME280;46212;50.258;19.062;2023-03-01T04:19:11;99692.41;;;-4.77;86.93
53340;BME280;46212;50.258;19.062;2023-03-01T04:21:37;99689.97;;;-4.70;86.89
53340;BME280;46212;50.258;19.062;2023-03-01T04:24:03;99693.19;;;-4.76;86.48
53340;BME280;46212;50.258;19.062;2023-03-01T04:26:29;99693.50;;;-4.78;86.17
53340;BME280;46212;50.258;19.062;2023-03-01T04:28:55;99679.75;;;-4.85;86.03
53340;BME280;46212;50.258;19.062;2023-03-01T04:31:20;99686.16;;;-4.90;86.63
53340;BME280;46212;50.258;19.062;2023-03-01T04:33:51;99681.88;;;-4.91;86.69
53340;BME280;46212;50.258;19.062;2023-03-01T04:36:18;99664.19;;;-5.00;86.70
53340;BME280;46212;50.258;19.062;2023-03-01T04:38:44;99675.25;;;-4.93;86.67
53340;BME280;46212;50.258;19.062;2023-03-01T04:41:15;99680.94;;;-4.95;86.09
53340;BME280;46212;50.258;19.062;2023-03-01T04:43:41;99676.41;;;-5.03;86.22
53340;BME280;46212;50.258;19.062;2023-03-01T04:46:08;99678.44;;;-5.00;85.99
53340;BME280;46212;50.258;19.062;2023-03-01T04:48:38;99671.97;;;-4.99;86.08
53340;BME280;46212;50.258;19.062;2023-03-01T04:51:05;99681.41;;;-4.93;86.56
53340;BME280;46212;50.258;19.062;2023-03-01T04:53:33;99669.53;;;-4.92;86.67
53340;BME280;46212;50.258;19.062;2023-03-01T04:55:59;99675.16;;;-4.85;86.42
53340;BME280;46212;50.258;19.062;2023-03-01T04:58:28;99667.59;;;-4.91;86.22
53340;BME280;46212;50.258;19.062;2023-03-01T05:00:54;99649.84;;;-5.13;86.58
53340;BME280;46212;50.258;19.062;2023-03-01T05:03:20;99658.28;;;-5.14;87.14
53340;BME280;46212;50.258;19.062;2023-03-01T05:05:49;99655.72;;;-5.11;87.56
53340;BME280;46212;50.258;19.062;2023-03-01T05:08:15;99646.78;;;-5.03;87.66
53340;BME280;46212;50.258;19.062;2023-03-01T05:10:51;99665.44;;;-4.98;88.10
53340;BME280;46212;50.258;19.062;2023-03-01T05:13:18;99663.59;;;-5.06;88.43
53340;BME280;46212;50.258;19.062;2023-03-01T05:15:57;99659.31;;;-5.07;88.42
53340;BME280;46212;50.258;19.062;2023-03-01T05:18:24;99641.78;;;-5.13;88.36
53340;BME280;46212;50.258;19.062;2023-03-01T05:20:54;99664.47;;;-4.93;87.83
53340;BME280;46212;50.258;19.062;2023-03-01T05:23:24;99632.44;;;-4.95;87.30
53340;BME280;46212;50.258;19.062;2023-03-01T05:25:50;99648.75;;;-5.12;87.36
53340;BME280;46212;50.258;19.062;2023-03-01T05:28:18;99655.38;;;-5.09;87.80
53340;BME280;46212;50.258;19.062;2023-03-01T05:30:45;99648.94;;;-5.17;87.67
53340;BME280;46212;50.258;19.062;2023-03-01T05:33:10;99634.81;;;-5.14;87.16
53340;BME280;46212;50.258;19.062;2023-03-01T05:35:40;99632.31;;;-5.19;87.22
53340;BME280;46212;50.258;19.062;2023-03-01T05:38:06;99647.66;;;-4.90;86.53
53340;BME280;46212;50.258;19.062;2023-03-01T05:40:33;99659.19;;;-4.69;86.26
53340;BME280;46212;50.258;19.062;2023-03-01T05:42:59;99662.75;;;-4.56;85.63
53340;BME280;46212;50.258;19.062;2023-03-01T05:45:25;99675.56;;;-4.33;85.19
53340;BME280;46212;50.258;19.062;2023-03-01T05:47:51;99674.28;;;-4.14;84.26
53340;BME280;46212;50.258;19.062;2023-03-01T05:50:20;99673.69;;;-4.20;83.89
53340;BME280;46212;50.258;19.062;2023-03-01T05:52:51;99656.34;;;-4.31;84.03
53340;BME280;46212;50.258;19.062;2023-03-01T05:55:19;99676.69;;;-4.01;83.89
53340;BME280;46212;50.258;19.062;2023-03-01T05:57:45;99680.03;;;-4.04;84.02
53340;BME280;46212;50.258;19.062;2023-03-01T06:00:12;99684.19;;;-4.39;84.03
53340;BME280;46212;50.258;19.062;2023-03-01T06:02:38;99681.88;;;-4.49;84.86
53340;BME280;46212;50.258;19.062;2023-03-01T06:05:05;99682.69;;;-4.49;84.69
53340;BME280;46212;50.258;19.062;2023-03-01T06:07:30;99676.50;;;-4.49;84.59
53340;BME280;46212;50.258;19.062;2023-03-01T06:09:56;99658.16;;;-4.76;84.78
53340;BME280;46212;50.258;19.062;2023-03-01T06:12:21;99666.19;;;-4.68;85.23
53340;BME280;46212;50.258;19.062;2023-03-01T06:14:47;99663.34;;;-4.71;85.63
53340;BME280;46212;50.258;19.062;2023-03-01T06:17:13;99668.09;;;-4.68;85.88
53340;BME280;46212;50.258;19.062;2023-03-01T06:19:38;99691.06;;;-4.50;86.24
53340;BME280;46212;50.258;19.062;2023-03-01T06:22:04;99685.41;;;-4.37;85.75
53340;BME280;46212;50.258;19.062;2023-03-01T06:24:29;99676.72;;;-4.21;85.02
53340;BME280;46212;50.258;19.062;2023-03-01T06:26:55;99685.22;;;-3.99;84.92
53340;BME280;46212;50.258;19.062;2023-03-01T06:29:21;99686.66;;;-3.56;84.03
53340;BME280;46212;50.258;19.062;2023-03-01T06:31:47;99690.72;;;-3.62;83.84
53340;BME280;46212;50.258;19.062;2023-03-01T06:34:13;99690.84;;;-3.35;83.57
53340;BME280;46212;50.258;19.062;2023-03-01T06:36:40;99690.72;;;-3.50;83.65
53340;BME280;46212;50.258;19.062;2023-03-01T06:39:05;99682.63;;;-3.62;84.10
53340;BME280;46212;50.258;19.062;2023-03-01T06:41:32;99680.59;;;-3.65;84.72
53340;BME280;46212;50.258;19.062;2023-03-01T06:43:58;99675.63;;;-3.76;85.64
53340;BME280;46212;50.258;19.062;2023-03-01T06:46:24;99664.94;;;-3.60;85.30
53340;BME280;46212;50.258;19.062;2023-03-01T06:48:49;99664.28;;;-3.45;85.11
53340;BME280;46212;50.258;19.062;2023-03-01T06:51:15;99674.19;;;-3.37;84.88
53340;BME280;46212;50.258;19.062;2023-03-01T06:53:40;99668.91;;;-3.21;84.63
53340;BME280;46212;50.258;19.062;2023-03-01T06:56:06;99664.94;;;-2.99;84.26
53340;BME280;46212;50.258;19.062;2023-03-01T06:58:31;99656.03;;;-3.00;83.87
53340;BME280;46212;50.258;19.062;2023-03-01T07:00:57;99666.84;;;-2.88;83.39
53340;BME280;46212;50.258;19.062;2023-03-01T07:03:23;99666.84;;;-3.00;84.38
53340;BME280;46212;50.258;19.062;2023-03-01T07:05:49;99673.09;;;-2.72;84.21
53340;BME280;46212;50.258;19.062;2023-03-01T07:08:18;99673.28;;;-2.52;83.47
53340;BME280;46212;50.258;19.062;2023-03-01T07:10:43;99662.91;;;-2.50;83.05
53340;BME280;46212;50.258;19.062;2023-03-01T07:13:09;99669.56;;;-2.20;82.54
53340;BME280;46212;50.258;19.062;2023-03-01T07:15:34;99673.50;;;-2.18;81.64
53340;BME280;46212;50.258;19.062;2023-03-01T07:18:00;99659.88;;;-2.21;81.32
53340;BME280;46212;50.258;19.062;2023-03-01T07:20:25;99669.41;;;-2.11;80.91
53340;BME280;46212;50.258;19.062;2023-03-01T07:22:55;99662.97;;;-2.07;81.31
53340;BME280;46212;50.258;19.062;2023-03-01T07:25:21;99659.47;;;-2.07;81.09
53340;BME280;46212;50.258;19.062;2023-03-01T07:27:53;99661.91;;;-2.02;80.77
53340;BME280;46212;50.258;19.062;2023-03-01T07:30:20;99660.38;;;-1.88;80.14
53340;BME280;46212;50.258;19.062;2023-03-01T07:32:46;99638.28;;;-1.90;80.28
53340;BME280;46212;50.258;19.062;2023-03-01T07:35:11;99658.81;;;-1.73;79.27
53340;BME280;46212;50.258;19.062;2023-03-01T07:37:37;99644.41;;;-1.62;78.52
53340;BME280;46212;50.258;19.062;2023-03-01T07:40:02;99647.28;;;-1.39;77.98
53340;BME280;46212;50.258;19.062;2023-03-01T07:42:28;99621.75;;;-1.38;76.97
53340;BME280;46212;50.258;19.062;2023-03-01T07:44:53;99643.19;;;-0.98;75.39
53340;BME280;46212;50.258;19.062;2023-03-01T07:47:19;99643.81;;;-0.50;73.78
53340;BME280;46212;50.258;19.062;2023-03-01T07:49:44;99644.59;;;-0.31;72.77
53340;BME280;46212;50.258;19.062;2023-03-01T07:52:11;99634.66;;;-0.04;71.82
53340;BME280;46212;50.258;19.062;2023-03-01T07:54:37;99639.44;;;0.03;71.50
53340;BME280;46212;50.258;19.062;2023-03-01T07:57:02;99650.16;;;0.37;70.97
53340;BME280;46212;50.258;19.062;2023-03-01T07:59:28;99650.97;;;0.64;69.68
53340;BME280;46212;50.258;19.062;2023-03-01T08:01:57;99640.94;;;0.68;69.04
53340;BME280;46212;50.258;19.062;2023-03-01T08:04:23;99641.34;;;0.70;67.90
53340;BME280;46212;50.258;19.062;2023-03-01T08:06:50;99645.56;;;0.90;68.28
53340;BME280;46212;50.258;19.062;2023-03-01T08:09:16;99638.47;;;0.86;68.23
53340;BME280;46212;50.258;19.062;2023-03-01T08:11:41;99645.41;;;1.06;67.60
53340;BME280;46212;50.258;19.062;2023-03-01T08:14:06;99644.72;;;0.86;67.66
53340;BME280;46212;50.258;19.062;2023-03-01T08:16:33;99644.59;;;1.05;67.66
53340;BME280;46212;50.258;19.062;2023-03-01T08:19:07;99646.84;;;1.26;65.94
53340;BME280;46212;50.258;19.062;2023-03-01T08:21:33;99634.00;;;1.23;66.30
53340;BME280;46212;50.258;19.062;2023-03-01T08:24:03;99631.59;;;1.48;65.28
53340;BME280;46212;50.258;19.062;2023-03-01T08:26:29;99636.72;;;1.56;64.31
53340;BME280;46212;50.258;19.062;2023-03-01T08:28:55;99637.72;;;1.71;63.58
53340;BME280;46212;50.258;19.062;2023-03-01T08:31:25;99638.78;;;1.96;61.29
53340;BME280;46212;50.258;19.062;2023-03-01T08:33:54;99633.19;;;1.86;61.91
53340;BME280;46212;50.258;19.062;2023-03-01T08:36:25;99626.50;;;1.80;62.48
53340;BME280;46212;50.258;19.062;2023-03-01T08:38:51;99630.59;;;2.00;61.87
53340;BME280;46212;50.258;19.062;2023-03-01T08:41:17;99629.56;;;2.11;61.05
53340;BME280;46212;50.258;19.062;2023-03-01T08:43:43;99628.22;;;1.95;61.22
53340;BME280;46212;50.258;19.062;2023-03-01T08:46:08;99626.28;;;1.58;63.60
53340;BME280;46212;50.258;19.062;2023-03-01T08:48:34;99623.91;;;1.27;64.18
53340;BME280;46212;50.258;19.062;2023-03-01T08:51:11;99618.22;;;1.36;64.17
53340;BME280;46212;50.258;19.062;2023-03-01T08:53:37;99613.31;;;1.48;62.82
53340;BME280;46212;50.258;19.062;2023-03-01T08:56:03;99611.34;;;2.19;60.32
53340;BME280;46212;50.258;19.062;2023-03-01T08:58:29;99615.53;;;2.50;58.10
53340;BME280;46212;50.258;19.062;2023-03-01T09:00:55;99620.22;;;2.53;57.45
53340;BME280;46212;50.258;19.062;2023-03-01T09:03:22;99609.69;;;2.51;56.91
53340;BME280;46212;50.258;19.062;2023-03-01T09:05:47;99610.88;;;2.57;57.23
53340;BME280;46212;50.258;19.062;2023-03-01T09:08:16;99599.59;;;2.55;57.91
53340;BME280;46212;50.258;19.062;2023-03-01T09:10:41;99606.25;;;2.61;58.05
53340;BME280;46212;50.258;19.062;2023-03-01T09:13:07;99612.34;;;2.99;57.09
53340;BME280;46212;50.258;19.062;2023-03-01T09:15:32;99614.81;;;3.18;55.65
53340;BME280;46212;50.258;19.062;2023-03-01T09:17:58;99593.41;;;3.31;55.60
53340;BME280;46212;50.258;19.062;2023-03-01T09:20:24;99614.56;;;3.48;54.50
53340;BME280;46212;50.258;19.062;2023-03-01T09:22:49;99616.19;;;3.59;54.08
53340;BME280;46212;50.258;19.062;2023-03-01T09:25:15;99614.63;;;3.65;54.00
53340;BME280;46212;50.258;19.062;2023-03-01T09:27:40;99611.13;;;3.65;54.14
53340;BME280;46212;50.258;19.062;2023-03-01T09:30:07;99611.91;;;3.69;53.94
53340;BME280;46212;50.258;19.062;2023-03-01T09:32:32;99590.63;;;3.13;56.01
53340;BME280;46212;50.258;19.062;2023-03-01T09:34:58;99609.13;;;3.48;55.30
53340;BME280;46212;50.258;19.062;2023-03-01T09:37:26;99601.00;;;3.72;54.44
53340;BME280;46212;50.258;19.062;2023-03-01T09:39:52;99597.16;;;3.91;53.51
53340;BME280;46212;50.258;19.062;2023-03-01T09:42:17;99604.59;;;4.01;51.97
53340;BME280;46212;50.258;19.062;2023-03-01T09:45:02;99604.88;;;3.61;52.77
53340;BME280;46212;50.258;19.062;2023-03-01T09:47:31;99600.50;;;3.42;53.92
53340;BME280;46212;50.258;19.062;2023-03-01T09:50:12;99577.59;;;3.64;53.49
53340;BME280;46212;50.258;19.062;2023-03-01T09:55:37;99589.41;;;4.32;50.09
53340;BME280;46212;50.258;19.062;2023-03-01T10:01:30;99571.03;;;4.22;50.80
53340;BME280;46212;50.258;19.062;2023-03-01T10:06:49;99576.91;;;4.24;50.80
53340;BME280;46212;50.258;19.062;2023-03-01T10:09:17;99583.94;;;4.32;50.62
53340;BME280;46212;50.258;19.062;2023-03-01T10:11:50;99574.19;;;4.56;49.38
53340;BME280;46212;50.258;19.062;2023-03-01T10:17:02;99586.63;;;4.92;48.43
53340;BME280;46212;50.258;19.062;2023-03-01T10:19:46;99575.28;;;4.97;47.50
53340;BME280;46212;50.258;19.062;2023-03-01T10:22:22;99584.25;;;5.08;48.05
53340;BME280;46212;50.258;19.062;2023-03-01T10:24:49;99583.09;;;5.02;47.91
53340;BME280;46212;50.258;19.062;2023-03-01T10:27:26;99577.59;;;5.06;47.71
53340;BME280;46212;50.258;19.062;2023-03-01T10:32:39;99557.72;;;4.84;49.18
53340;BME280;46212;50.258;19.062;2023-03-01T10:35:27;99569.03;;;4.97;48.23
53340;BME280;46212;50.258;19.062;2023-03-01T10:38:10;99563.47;;;5.28;47.79
53340;BME280;46212;50.258;19.062;2023-03-01T10:40:50;99565.75;;;5.44;46.42
53340;BME280;46212;50.258;19.062;2023-03-01T10:43:16;99575.81;;;5.61;46.54
53340;BME280;46212;50.258;19.062;2023-03-01T10:45:42;99568.34;;;5.76;45.30
53340;BME280;46212;50.258;19.062;2023-03-01T10:50:33;99552.84;;;5.38;46.60
53340;BME280;46212;50.258;19.062;2023-03-01T10:53:04;99548.06;;;5.56;47.36
53340;BME280;46212;50.258;19.062;2023-03-01T10:55:39;99555.16;;;5.50;45.88
53340;BME280;46212;50.258;19.062;2023-03-01T11:00:49;99541.56;;;6.01;45.67
53340;BME280;46212;50.258;19.062;2023-03-01T11:03:28;99539.81;;;6.25;44.43
53340;BME280;46212;50.258;19.062;2023-03-01T11:05:59;99538.44;;;6.47;43.82
53340;BME280;46212;50.258;19.062;2023-03-01T11:08:37;99527.75;;;6.60;43.83
53340;BME280;46212;50.258;19.062;2023-03-01T11:13:35;99541.09;;;6.99;42.74
53340;BME280;46212;50.258;19.062;2023-03-01T11:16:10;99534.59;;;7.19;41.36
53340;BME280;46212;50.258;19.062;2023-03-01T11:18:37;99535.75;;;7.22;40.85
53340;BME280;46212;50.258;19.062;2023-03-01T11:21:03;99520.00;;;7.26;41.63
53340;BME280;46212;50.258;19.062;2023-03-01T11:23:30;99504.56;;;7.35;41.41
53340;BME280;46212;50.258;19.062;2023-03-01T11:25:58;99511.81;;;7.49;40.81
53340;BME280;46212;50.258;19.062;2023-03-01T11:28:27;99491.00;;;7.78;40.81
53340;BME280;46212;50.258;19.062;2023-03-01T11:33:33;99508.25;;;8.06;40.79
53340;BME280;46212;50.258;19.062;2023-03-01T11:36:07;99496.81;;;8.11;39.94
53340;BME280;46212;50.258;19.062;2023-03-01T11:38:37;99512.03;;;8.42;40.10
53340;BME280;46212;50.258;19.062;2023-03-01T11:43:56;99510.06;;;8.66;38.97
53340;BME280;46212;50.258;19.062;2023-03-01T12:11:03;99485.00;;;9.91;34.54
53340;BME280;46212;50.258;19.062;2023-03-01T12:27:26;99456.09;;;10.44;33.07
53340;BME280;46212;50.258;19.062;2023-03-01T12:32:40;99462.97;;;10.68;33.44
53340;BME280;46212;50.258;19.062;2023-03-01T12:49:45;99433.53;;;11.44;32.16
53340;BME280;46212;50.258;19.062;2023-03-01T12:51:50;99424.00;;;11.58;32.09
53340;BME280;46212;50.258;19.062;2023-03-01T12:54:28;99423.41;;;11.79;30.93
53340;BME280;46212;50.258;19.062;2023-03-01T12:56:57;99422.38;;;11.86;30.54
53340;BME280;46212;50.258;19.062;2023-03-01T12:59:36;99419.16;;;11.87;29.86
53340;BME280;46212;50.258;19.062;2023-03-01T13:02:31;99407.88;;;11.94;29.28
53340;BME280;46212;50.258;19.062;2023-03-01T13:05:47;99411.72;;;11.97;28.72
53340;BME280;46212;50.258;19.062;2023-03-01T13:08:44;99413.69;;;12.09;27.20
53340;BME280;46212;50.258;19.062;2023-03-01T13:11:21;99397.16;;;12.18;27.24
53340;BME280;46212;50.258;19.062;2023-03-01T13:13:47;99397.56;;;12.42;26.98
53340;BME280;46212;50.258;19.062;2023-03-01T13:16:39;99414.50;;;12.65;27.21
53340;BME280;46212;50.258;19.062;2023-03-01T13:22:26;99403.09;;;13.28;27.26
53340;BME280;46212;50.258;19.062;2023-03-01T13:25:00;99399.94;;;13.88;26.03
53340;BME280;46212;50.258;19.062;2023-03-01T13:27:26;99394.50;;;14.43;26.53
53340;BME280;46212;50.258;19.062;2023-03-01T13:29:59;99404.03;;;14.96;25.61
53340;BME280;46212;50.258;19.062;2023-03-01T13:32:35;99403.94;;;15.51;24.49
53340;BME280;46212;50.258;19.062;2023-03-01T13:37:44;99393.00;;;18.84;20.37
53340;BME280;46212;50.258;19.062;2023-03-01T13:42:56;99390.53;;;23.18;16.50
53340;BME280;46212;50.258;19.062;2023-03-01T13:45:42;99388.28;;;25.05;15.11
53340;BME280;46212;50.258;19.062;2023-03-01T13:48:21;99372.91;;;26.35;14.29
53340;BME280;46212;50.258;19.062;2023-03-01T13:50:58;99375.66;;;27.42;13.74
53340;BME280;46212;50.258;19.062;2023-03-01T13:53:26;99387.19;;;28.35;12.83
53340;BME280;46212;50.258;19.062;2023-03-01T13:56:09;99379.09;;;28.82;12.80
53340;BME280;46212;50.258;19.062;2023-03-01T14:03:49;99374.50;;;29.98;11.67
53340;BME280;46212;50.258;19.062;2023-03-01T14:06:22;99368.41;;;29.79;11.08
53340;BME280;46212;50.258;19.062;2023-03-01T14:08:49;99369.44;;;28.14;12.33
53340;BME280;46212;50.258;19.062;2023-03-01T14:19:36;99370.88;;;29.75;11.27
53340;BME280;46212;50.258;19.062;2023-03-01T14:22:13;99366.34;;;29.87;10.98
53340;BME280;46212;50.258;19.062;2023-03-01T14:24:47;99339.38;;;29.43;10.59
53340;BME280;46212;50.258;19.062;2023-03-01T14:27:15;99356.66;;;29.45;10.88
53340;BME280;46212;50.258;19.062;2023-03-01T14:29:41;99351.38;;;29.87;10.54
53340;BME280;46212;50.258;19.062;2023-03-01T14:32:20;99357.19;;;30.12;10.52
53340;BME280;46212;50.258;19.062;2023-03-01T14:34:48;99348.59;;;30.27;10.31
53340;BME280;46212;50.258;19.062;2023-03-01T14:39:52;99349.53;;;30.37;10.44
53340;BME280;46212;50.258;19.062;2023-03-01T14:42:19;99338.81;;;31.00;9.87
53340;BME280;46212;50.258;19.062;2023-03-01T14:44:49;99347.94;;;30.98;9.28
53340;BME280;46212;50.258;19.062;2023-03-01T14:49:56;99344.38;;;30.35;9.94
53340;BME280;46212;50.258;19.062;2023-03-01T14:52:34;99338.88;;;30.45;9.96
53340;BME280;46212;50.258;19.062;2023-03-01T14:55:04;99345.47;;;30.63;9.96
53340;BME280;46212;50.258;19.062;2023-03-01T14:57:30;99349.25;;;30.65;10.12
53340;BME280;46212;50.258;19.062;2023-03-01T15:00:01;99336.47;;;30.19;10.22
53340;BME280;46212;50.258;19.062;2023-03-01T15:02:31;99341.84;;;29.99;10.32
53340;BME280;46212;50.258;19.062;2023-03-01T15:04:59;99341.03;;;30.14;10.08